Time;durP1;ratioP1;P1;durP2;ratioP2;P2;SDS_P1;SDS_P2;PMS_P1;PMS_P2;Temp;Humidity;BMP_temperature;BMP_pressure;BME280_temperature;BME280_humidity;BME280_pressure;Samples;Min_cycle;Max_cycle;Signal;HPM_P1;HPM_P2
2022/05/02 00:00:14;;;;;;;6.50;5.53;;;;;;;12.53;56.68;95059.91;5009221;28;20041;-77
2022/05/02 00:02:40;;;;;;;8.70;5.70;;;;;;;12.53;56.72;95057.28;4959112;28;20069;-76
2022/05/02 00:05:06;;;;;;;11.85;6.18;;;;;;;12.43;57.01;95038.88;4959180;28;20072;-76
2022/05/02 00:07:31;;;;;;;6.22;5.38;;;;;;;12.32;57.59;95050.16;4990712;28;20489;-76
2022/05/02 00:09:57;;;;;;;6.78;5.60;;;;;;;12.29;57.69;95042.81;4973380;28;20080;-76
2022/05/02 00:12:22;;;;;;;5.82;5.32;;;;;;;12.30;57.81;95044.38;4989971;28;20409;-76
2022/05/02 00:14:47;;;;;;;9.98;5.60;;;;;;;12.31;57.95;95048.56;4988810;28;20076;-76
2022/05/02 00:17:13;;;;;;;5.93;5.43;;;;;;;12.35;57.64;95039.25;4969515;28;20042;-76
2022/05/02 00:19:38;;;;;;;10.32;5.65;;;;;;;12.30;57.87;95049.59;4975050;28;20100;-76
2022/05/02 00:22:04;;;;;;;7.72;5.75;;;;;;;12.19;58.40;95047.84;5009479;28;20034;-76
2022/05/02 00:24:30;;;;;;;7.72;6.45;;;;;;;12.28;58.12;95047.22;5009325;28;20088;-77
2022/05/02 00:26:56;;;;;;;6.20;5.60;;;;;;;12.21;58.50;95038.00;5012822;28;20478;-77
2022/05/02 00:29:22;;;;;;;10.93;6.40;;;;;;;12.21;58.16;95035.38;4996208;28;20030;-77
2022/05/02 00:31:47;;;;;;;13.60;5.95;;;;;;;12.22;58.18;95037.75;5015615;28;20413;-78
2022/05/02 00:34:13;;;;;;;8.95;6.38;;;;;;;12.27;58.00;95050.09;4999666;28;20149;-77
2022/05/02 00:36:39;;;;;;;8.32;5.82;;;;;;;12.16;58.34;95043.91;4965440;28;20038;-77
2022/05/02 00:39:04;;;;;;;10.73;5.88;;;;;;;12.13;58.67;95038.38;4997367;28;20065;-77
2022/05/02 00:41:30;;;;;;;12.27;5.60;;;;;;;12.15;58.53;95038.91;4995535;28;20037;-76
2022/05/02 00:43:55;;;;;;;7.55;5.10;;;;;;;12.16;58.21;95033.47;5012632;28;20030;-76
2022/05/02 00:46:22;;;;;;;6.68;5.35;;;;;;;12.14;58.42;95030.31;5012229;28;20040;-76
2022/05/02 00:48:47;;;;;;;7.70;5.53;;;;;;;12.10;58.44;95041.44;4978287;28;20064;-76
2022/05/02 00:51:16;;;;;;;11.30;5.70;;;;;;;12.08;58.67;95028.66;5011877;28;20619;-76
2022/05/02 00:53:43;;;;;;;6.35;5.70;;;;;;;12.18;58.59;95035.84;4993803;28;20069;-76
2022/05/02 00:56:09;;;;;;;12.15;5.60;;;;;;;12.13;58.35;95039.16;4977555;28;20385;-76
2022/05/02 00:58:35;;;;;;;12.23;5.40;;;;;;;12.11;57.97;95030.00;4994373;28;20026;-76
2022/05/02 01:01:00;;;;;;;6.95;5.57;;;;;;;12.01;58.31;95026.19;4994651;28;20038;-77
2022/05/02 01:03:26;;;;;;;8.35;5.57;;;;;;;12.09;58.39;95024.22;4994008;28;20034;-76
2022/05/02 01:08:35;;;;;;;5.63;5.13;;;;;;;12.00;58.34;95019.41;5011386;28;20425;-76
2022/05/02 01:11:01;;;;;;;7.25;5.03;;;;;;;11.99;58.00;95015.22;4993628;28;20061;-76
2022/05/02 01:13:46;;;;;;;7.10;4.65;;;;;;;11.98;58.30;95016.22;4978350;28;20064;-76
2022/05/02 01:16:15;;;;;;;8.13;5.28;;;;;;;11.88;58.86;95010.88;4979538;28;20505;-76
2022/05/02 01:18:42;;;;;;;7.88;5.28;;;;;;;11.88;58.70;95005.66;5011475;28;20030;-76
2022/05/02 01:21:13;;;;;;;8.35;5.65;;;;;;;11.96;59.02;95004.47;4993788;28;20040;-76
2022/05/02 01:23:38;;;;;;;5.32;4.88;;;;;;;12.03;58.72;95008.50;4978372;28;20076;-76
2022/05/02 01:26:04;;;;;;;9.15;4.85;;;;;;;11.95;58.54;95008.88;4977821;28;20033;-76
2022/05/02 01:28:30;;;;;;;5.28;4.78;;;;;;;12.00;58.54;95006.34;4993679;28;20029;-76
2022/05/02 01:30:55;;;;;;;5.68;5.18;;;;;;;12.05;58.16;95010.09;4994019;28;20568;-76
2022/05/02 01:33:21;;;;;;;8.10;4.65;;;;;;;12.04;58.39;95009.31;4993507;28;20037;-78
2022/05/02 01:35:46;;;;;;;6.30;4.72;;;;;;;11.86;58.44;95006.88;5011064;28;20033;-76
2022/05/02 01:38:12;;;;;;;6.20;4.82;;;;;;;11.81;59.24;94989.38;4977341;28;20034;-76
2022/05/02 01:40:38;;;;;;;9.80;4.95;;;;;;;11.79;58.77;94998.44;4993757;28;20120;-76
2022/05/02 01:43:04;;;;;;;6.72;5.15;;;;;;;11.77;59.23;94998.66;4994163;28;20121;-76
2022/05/02 01:45:29;;;;;;;7.43;5.47;;;;;;;11.72;59.17;94990.75;4976863;28;20034;-76
2022/05/02 01:47:55;;;;;;;9.07;4.75;;;;;;;11.67;59.51;94988.03;4977965;28;20631;-75
2022/05/02 01:50:20;;;;;;;11.23;5.18;;;;;;;11.68;59.45;94980.00;4977406;28;20022;-76
2022/05/02 01:52:45;;;;;;;6.43;4.72;;;;;;;11.69;59.59;94981.56;4977857;28;20045;-76
2022/05/02 01:55:11;;;;;;;7.72;4.60;;;;;;;11.74;59.61;94965.25;4977035;28;20034;-76
2022/05/02 01:57:36;;;;;;;8.43;4.60;;;;;;;11.73;59.44;94985.31;4993350;28;20474;-76
2022/05/02 02:00:02;;;;;;;8.00;5.18;;;;;;;11.71;59.63;94976.13;4993652;28;20464;-76
2022/05/02 02:02:27;;;;;;;23.52;5.38;;;;;;;11.68;59.81;94979.19;4993364;28;20084;-76
2022/05/02 02:07:37;;;;;;;5.60;4.72;;;;;;;11.52;60.38;94977.34;5010873;28;20028;-76
2022/05/02 02:10:03;;;;;;;6.10;4.85;;;;;;;11.56;60.08;94973.28;5008689;28;20038;-77
2022/05/02 02:12:28;;;;;;;9.52;4.93;;;;;;;11.51;60.20;94975.75;4976725;28;20046;-76
2022/05/02 02:14:53;;;;;;;6.50;4.88;;;;;;;11.51;60.25;94962.75;4976428;28;20042;-76
2022/05/02 02:17:19;;;;;;;7.47;5.10;;;;;;;11.48;60.57;94963.22;4976957;28;20101;-76
2022/05/02 02:19:44;;;;;;;11.60;5.97;;;;;;;11.50;60.61;94955.97;4992938;28;20415;-76
2022/05/02 02:22:19;;;;;;;8.98;5.15;;;;;;;11.47;60.79;94954.63;5010593;28;20457;-76
2022/05/02 02:24:46;;;;;;;6.28;5.60;;;;;;;11.45;60.36;94963.69;5010534;28;20042;-77
2022/05/02 02:27:11;;;;;;;7.03;5.53;;;;;;;11.43;60.80;94967.31;4960905;28;20579;-77
2022/05/02 02:29:37;;;;;;;6.53;5.82;;;;;;;11.42;60.41;94952.72;4976531;28;20145;-76
2022/05/02 02:32:02;;;;;;;16.35;6.75;;;;;;;11.48;60.48;94952.81;4992716;28;20403;-77
2022/05/02 02:34:28;;;;;;;6.70;5.40;;;;;;;11.50;60.94;94954.16;4992447;28;20048;-76
2022/05/02 02:36:53;;;;;;;13.88;5.72;;;;;;;11.54;60.54;94942.22;5010746;28;20080;-76
2022/05/02 02:39:18;;;;;;;7.72;7.03;;;;;;;11.43;60.45;94941.28;5010034;28;20421;-76
2022/05/02 02:41:44;;;;;;;8.02;6.35;;;;;;;11.49;60.51;94928.34;5008944;28;20133;-77
2022/05/02 02:44:10;;;;;;;14.15;6.40;;;;;;;11.55;60.39;94930.00;4992747;28;20030;-76
2022/05/02 02:46:35;;;;;;;13.90;6.53;;;;;;;11.55;60.69;94935.22;4960708;28;20038;-77
2022/05/02 02:49:00;;;;;;;11.40;6.13;;;;;;;11.46;61.00;94934.03;4959521;28;20049;-76
2022/05/02 02:51:26;;;;;;;8.07;6.35;;;;;;;11.45;60.92;94927.22;4992585;28;20137;-77
2022/05/02 02:53:52;;;;;;;12.13;6.53;;;;;;;11.43;61.23;94923.06;4992472;28;20030;-76
2022/05/02 02:56:17;;;;;;;10.05;6.75;;;;;;;11.36;61.56;94930.19;5010204;28;20745;-76
2022/05/02 02:58:43;;;;;;;7.15;6.20;;;;;;;11.30;61.74;94925.94;4992489;28;20105;-76
2022/05/02 03:01:08;;;;;;;8.23;6.80;;;;;;;11.18;61.98;94922.59;4992532;28;20057;-76
2022/05/02 03:03:34;;;;;;;19.90;7.38;;;;;;;11.16;62.02;94929.84;4991790;28;20044;-77
2022/05/02 03:06:02;;;;;;;7.18;6.57;;;;;;;11.13;62.15;94935.50;4976226;28;20038;-77
2022/05/02 03:08:27;;;;;;;8.63;6.78;;;;;;;11.04;62.67;94921.28;5010566;28;20034;-77
2022/05/02 03:10:54;;;;;;;8.98;6.97;;;;;;;10.95;62.70;94928.66;5009857;28;20041;-77
2022/05/02 03:13:20;;;;;;;10.02;6.68;;;;;;;10.93;63.32;94929.94;4976666;28;20528;-76
2022/05/02 03:15:45;;;;;;;10.88;6.72;;;;;;;10.89;62.78;94919.16;5009906;28;20038;-76
2022/05/02 03:18:11;;;;;;;10.80;7.00;;;;;;;10.91;62.60;94922.34;5009881;28;20030;-76
2022/05/02 03:20:36;;;;;;;13.27;6.20;;;;;;;10.88;62.99;94924.59;5008385;28;20042;-76
2022/05/02 03:23:01;;;;;;;8.80;6.43;;;;;;;10.89;62.95;94913.16;4992305;28;20026;-76
2022/05/02 03:25:27;;;;;;;6.75;6.10;;;;;;;10.97;62.66;94918.03;4991955;28;20034;-77
2022/05/02 03:27:52;;;;;;;12.52;6.72;;;;;;;10.97;62.83;94920.63;5009813;28;20111;-77
2022/05/02 03:30:18;;;;;;;8.38;6.25;;;;;;;10.97;62.47;94921.41;5008234;28;20502;-77
2022/05/02 03:32:43;;;;;;;8.15;6.40;;;;;;;11.10;61.92;94922.97;5008012;28;20033;-77
2022/05/02 03:35:09;;;;;;;9.50;5.57;;;;;;;11.12;62.11;94920.91;5008228;28;20477;-77
2022/05/02 03:37:34;;;;;;;10.40;6.07;;;;;;;11.20;61.94;94914.53;4975682;28;20124;-77
2022/05/02 03:39:59;;;;;;;9.45;6.10;;;;;;;11.15;61.58;94917.84;4975689;28;20406;-77
2022/05/02 03:42:25;;;;;;;9.10;6.38;;;;;;;11.29;61.58;94919.16;5009632;28;20037;-76
2022/05/02 03:44:51;;;;;;;6.50;5.90;;;;;;;11.27;60.86;94925.63;4991744;28;20030;-76
2022/05/02 03:47:17;;;;;;;8.02;6.40;;;;;;;11.28;61.05;94924.59;5009499;28;20154;-77
2022/05/02 03:49:43;;;;;;;9.82;5.63;;;;;;;11.41;60.94;94921.72;5009441;28;20502;-76
2022/05/02 03:52:08;;;;;;;8.32;5.95;;;;;;;11.35;60.81;94923.41;5008018;28;20080;-76
2022/05/02 03:54:34;;;;;;;6.80;5.03;;;;;;;11.46;60.28;94928.81;4991416;28;20912;-76
2022/05/02 03:56:59;;;;;;;12.07;6.43;;;;;;;11.43;60.59;94932.69;4991772;28;20501;-76
2022/05/02 03:59:25;;;;;;;10.15;5.57;;;;;;;11.41;60.31;94927.72;4959750;28;20029;-76
2022/05/02 04:01:50;;;;;;;12.85;5.70;;;;;;;11.56;60.01;94934.22;4993232;28;20042;-77
2022/05/02 04:04:16;;;;;;;12.15;6.45;;;;;;;11.53;60.13;94924.25;4978897;28;20030;-76
2022/05/02 04:06:41;;;;;;;7.00;5.45;;;;;;;11.92;58.60;94925.97;4995366;28;20126;-76
2022/05/02 04:09:07;;;;;;;14.52;6.10;;;;;;;12.84;55.89;94919.41;5012683;28;20064;-76
2022/05/02 04:11:32;;;;;;;7.53;5.95;;;;;;;13.70;53.03;94922.97;5012669;28;20033;-76
2022/05/02 04:13:58;;;;;;;7.28;6.57;;;;;;;14.27;51.17;94926.81;5012837;28;20417;-76
2022/05/02 04:16:23;;;;;;;10.13;5.10;;;;;;;14.98;49.28;94922.00;5012523;28;20030;-76
2022/05/02 04:18:49;;;;;;;18.45;5.40;;;;;;;15.20;48.67;94927.03;5012598;28;20033;-76
2022/05/02 04:21:14;;;;;;;14.02;5.03;;;;;;;16.02;46.37;94931.41;5012764;28;20038;-76
2022/05/02 04:23:40;;;;;;;10.85;4.88;;;;;;;16.48;44.89;94939.22;5011263;28;20025;-76
2022/05/02 04:26:05;;;;;;;14.75;5.18;;;;;;;16.62;43.97;94913.22;5012436;28;20049;-76
2022/05/02 04:28:31;;;;;;;6.30;4.80;;;;;;;17.47;42.35;94929.72;5012113;28;20026;-76
2022/05/02 04:30:56;;;;;;;9.63;4.43;;;;;;;17.59;41.77;94926.75;4994641;28;20033;-76
2022/05/02 04:33:22;;;;;;;10.48;5.25;;;;;;;17.93;40.50;94927.59;4978358;28;20034;-76
2022/05/02 04:35:47;;;;;;;10.77;4.88;;;;;;;17.84;40.62;94923.97;4994773;28;20044;-76
2022/05/02 04:38:13;;;;;;;6.18;4.47;;;;;;;19.05;38.10;94926.56;5013188;28;20188;-77
2022/05/02 04:40:38;;;;;;;5.75;4.47;;;;;;;19.79;36.65;94919.78;4979201;28;20484;-76
2022/05/02 04:43:04;;;;;;;6.97;4.00;;;;;;;20.80;34.60;94935.03;4994991;28;20048;-77
2022/05/02 04:45:29;;;;;;;8.32;4.07;;;;;;;20.72;34.77;94925.16;4978569;28;20049;-76
2022/05/02 04:47:55;;;;;;;10.38;4.20;;;;;;;21.17;33.11;94933.31;4978645;28;20037;-76
2022/05/02 04:50:20;;;;;;;9.13;4.88;;;;;;;21.31;33.27;94934.09;5013076;28;20034;-76
2022/05/02 04:52:45;;;;;;;7.95;6.68;;;;;;;21.71;32.67;94926.38;5011610;28;20036;-76
2022/05/02 04:55:11;;;;;;;7.55;4.40;;;;;;;22.62;30.86;94916.25;4994250;28;20033;-77
2022/05/02 04:57:37;;;;;;;8.15;4.13;;;;;;;23.11;29.92;94918.97;5012688;28;20532;-76
2022/05/02 05:00:03;;;;;;;6.75;3.90;;;;;;;22.87;30.31;94919.34;4994151;28;20033;-76
2022/05/02 05:02:28;;;;;;;9.43;3.78;;;;;;;23.13;29.71;94914.91;5012052;28;20072;-76
2022/05/02 05:04:54;;;;;;;6.13;4.03;;;;;;;23.91;28.57;94913.16;4978001;28;20062;-77
2022/05/02 05:07:19;;;;;;;7.75;4.05;;;;;;;24.83;27.36;94920.81;4978231;28;20461;-77
2022/05/02 05:09:45;;;;;;;11.73;3.80;;;;;;;25.06;26.51;94921.41;4977880;28;20034;-77
2022/05/02 05:12:35;;;;;;;9.00;3.78;;;;;;;25.01;26.92;94924.22;4993694;28;20033;-77
2022/05/02 05:18:35;;;;;;;8.65;4.10;;;;;;;24.73;26.85;94921.16;5011939;28;20048;-77
2022/05/02 05:21:11;;;;;;;6.00;4.22;;;;;;;25.16;26.31;94914.91;5011859;28;20038;-77
2022/05/02 05:24:17;;;;;;;6.90;3.60;;;;;;;25.81;25.55;94894.94;4995139;28;20038;-77
2022/05/02 05:26:49;;;;;;;5.05;3.90;;;;;;;27.70;23.21;94901.91;4994861;28;20062;-77
2022/05/02 05:29:32;;;;;;;6.97;3.47;;;;;;;27.83;23.10;94895.44;4993747;28;20072;-77
2022/05/02 05:32:13;;;;;;;5.05;3.83;;;;;;;27.99;22.70;94896.25;4994070;28;20034;-76
2022/05/02 05:34:53;;;;;;;5.63;4.15;;;;;;;28.47;21.72;94902.50;4995636;28;20493;-77
2022/05/02 05:37:56;;;;;;;5.93;4.20;;;;;;;28.08;22.01;94904.91;4978871;28;20528;-77
2022/05/02 05:40:27;;;;;;;7.38;3.78;;;;;;;28.70;21.59;94900.81;5011475;28;20042;-77
2022/05/02 05:43:25;;;;;;;5.45;3.72;;;;;;;30.32;19.83;94909.41;5011522;28;20042;-77
2022/05/02 05:46:19;;;;;;;8.40;3.95;;;;;;;30.60;19.64;94894.94;4992295;28;20129;-77
2022/05/02 05:49:32;;;;;;;10.77;3.92;;;;;;;30.58;19.46;94892.59;5011373;28;20030;-77
2022/05/02 05:52:07;;;;;;;7.53;3.85;;;;;;;30.32;19.69;94890.63;5003668;28;20061;-77
2022/05/02 05:54:57;;;;;;;5.43;3.88;;;;;;;30.08;19.91;94898.94;4994147;28;20037;-77
2022/05/02 05:57:37;;;;;;;22.83;3.88;;;;;;;29.13;21.51;94891.16;4993977;28;20100;-77
2022/05/02 06:00:11;;;;;;;7.47;3.95;;;;;;;29.44;20.68;94898.34;4976959;28;20022;-77
2022/05/02 06:02:42;;;;;;;12.02;4.03;;;;;;;27.96;22.11;94898.81;4978165;28;20033;-77
2022/05/02 06:05:08;;;;;;;12.88;4.10;;;;;;;28.89;21.14;94888.66;5011765;28;20073;-77
2022/05/02 06:07:34;;;;;;;5.45;3.22;;;;;;;28.62;21.80;94906.31;4994978;28;20433;-77
2022/05/02 06:10:00;;;;;;;9.05;3.63;;;;;;;29.10;20.85;94880.34;5011487;28;20072;-77
2022/05/02 06:12:26;;;;;;;3.60;3.22;;;;;;;29.08;21.20;94883.38;4993608;28;20109;-77
2022/05/02 06:20:21;;;;;;;6.72;3.67;;;;;;;27.03;23.35;94889.97;4996958;28;20053;-77
2022/05/02 06:22:47;;;;;;;13.95;3.67;;;;;;;26.89;23.46;94885.69;4993822;28;20034;-77
2022/05/02 06:25:14;;;;;;;12.98;3.65;;;;;;;25.70;24.96;94895.31;4993404;28;20087;-77
2022/05/02 06:27:40;;;;;;;4.03;3.72;;;;;;;24.25;27.10;94879.69;4977181;28;20030;-77
2022/05/02 06:30:06;;;;;;;9.48;3.75;;;;;;;23.64;27.96;94876.31;4993818;28;20072;-77
2022/05/02 06:32:32;;;;;;;7.50;3.72;;;;;;;23.88;27.79;94881.13;4993199;28;20087;-77
2022/05/02 06:34:57;;;;;;;6.10;4.00;;;;;;;22.30;29.93;94879.47;4976717;28;20038;-77
2022/05/02 06:37:44;;;;;;;4.10;3.60;;;;;;;21.73;31.36;94872.06;4992977;28;20450;-76
2022/05/02 06:40:33;;;;;;;9.85;3.63;;;;;;;22.01;30.84;94871.94;4992658;28;20064;-77
2022/05/02 06:43:08;;;;;;;5.82;3.50;;;;;;;22.35;30.52;94874.03;4977936;28;20100;-78
2022/05/02 06:45:56;;;;;;;6.65;4.07;;;;;;;22.28;30.81;94877.09;5009884;28;20117;-77
2022/05/02 06:48:31;;;;;;;16.95;4.63;;;;;;;21.83;31.26;94873.69;4993505;28;20112;-77
2022/05/02 06:51:08;;;;;;;11.95;4.22;;;;;;;22.05;31.12;94860.47;4995828;28;20034;-77
2022/05/02 06:53:40;;;;;;;8.65;3.97;;;;;;;21.55;31.67;94871.13;4992932;28;20532;-77
2022/05/02 06:56:06;;;;;;;9.15;4.78;;;;;;;21.00;32.60;94861.75;5009229;28;20145;-77
2022/05/02 06:59:06;;;;;;;14.27;4.93;;;;;;;20.91;32.98;94867.69;5010682;28;20112;-78
2022/05/02 07:01:53;;;;;;;10.30;5.05;;;;;;;20.25;34.25;94858.34;5009925;28;20022;-78
2022/05/02 07:04:24;;;;;;;7.50;5.05;;;;;;;20.30;34.34;94855.59;4976855;28;20038;-77
2022/05/02 07:07:08;;;;;;;8.38;5.70;;;;;;;19.99;34.70;94865.91;5010213;28;20034;-77
2022/05/02 07:09:48;;;;;;;7.05;4.75;;;;;;;19.56;35.29;94853.94;5009250;28;20462;-77
2022/05/02 07:12:22;;;;;;;5.90;5.10;;;;;;;19.14;35.98;94845.00;4992368;28;20176;-77
2022/05/02 07:15:03;;;;;;;14.43;5.47;;;;;;;19.06;36.26;94849.06;4976415;28;20040;-77
2022/05/02 07:18:17;;;;;;;13.45;5.75;;;;;;;19.30;35.95;94853.47;4992431;28;20037;-77
2022/05/02 07:20:55;;;;;;;13.35;6.18;;;;;;;19.57;35.39;94845.75;4996796;28;20492;-77
2022/05/02 07:23:47;;;;;;;11.80;6.22;;;;;;;19.35;35.52;94840.22;4991635;28;20105;-77
2022/05/02 07:26:13;;;;;;;;;;;;;;;19.44;35.46;94838.50;5009159;28;20033;-77
2022/05/02 07:28:49;;;;;;;12.20;5.72;;;;;;;19.27;35.93;94844.28;4991655;28;19921;-76
2022/05/02 07:31:19;;;;;;;7.72;5.40;;;;;;;19.09;36.49;94831.91;4992340;28;20022;-76
2022/05/02 07:33:45;;;;;;;12.27;4.95;;;;;;;19.18;36.50;94836.22;4993145;28;20034;-76
2022/05/02 07:36:13;;;;;;;11.60;5.10;;;;;;;19.08;36.43;94825.84;5010006;28;20069;-76
2022/05/02 07:38:39;;;;;;;5.13;4.35;;;;;;;19.17;36.43;94829.38;4992941;28;20030;-77
2022/05/02 07:41:24;;;;;;;11.60;4.30;;;;;;;18.70;36.61;94843.44;4991960;28;20061;-76
2022/05/02 07:43:58;;;;;;;6.20;4.03;;;;;;;17.93;38.44;94846.03;4994341;28;20062;-77
2022/05/02 07:46:28;;;;;;;4.75;3.95;;;;;;;17.77;38.64;94834.09;5009029;28;20034;-76
2022/05/02 07:48:55;;;;;;;7.82;3.72;;;;;;;17.54;38.69;94855.78;4992187;28;20036;-76
2022/05/02 07:51:20;;;;;;;9.75;4.55;;;;;;;17.31;39.59;94847.53;4975489;28;20117;-76
2022/05/02 07:53:46;;;;;;;22.65;4.07;;;;;;;17.21;39.57;94858.09;4991341;28;20034;-76
2022/05/02 07:56:12;;;;;;;7.53;3.92;;;;;;;17.62;38.36;94842.06;5009374;28;20656;-76
2022/05/02 07:58:37;;;;;;;9.50;4.35;;;;;;;17.25;38.99;94864.41;4991858;28;20028;-75
2022/05/02 08:01:02;;;;;;;19.02;3.70;;;;;;;17.42;38.36;94855.34;4975363;28;20034;-75
2022/05/02 08:03:28;;;;;;;6.40;4.93;;;;;;;17.28;38.59;94853.34;4991516;28;20045;-77
2022/05/02 08:06:22;;;;;;;18.67;4.95;;;;;;;17.27;38.97;94862.28;4991573;28;20034;-77
2022/05/02 08:08:57;;;;;;;12.48;5.20;;;;;;;17.32;39.54;94854.34;4977771;28;20034;-75
2022/05/02 08:11:27;;;;;;;7.63;4.95;;;;;;;17.83;38.50;94850.59;4975040;28;20567;-75
2022/05/02 08:14:06;;;;;;;4.72;4.32;;;;;;;18.05;37.84;94850.91;4975680;28;20042;-77
2022/05/02 08:16:32;;;;;;;5.88;5.28;;;;;;;18.23;37.19;94867.88;4974415;28;20410;-76
2022/05/02 08:19:22;;;;;;;12.95;5.00;;;;;;;18.33;36.85;94857.25;5008860;28;20038;-76
2022/05/02 08:27:15;;;;;;;9.05;4.60;;;;;;;18.59;35.40;94855.91;5009166;28;20056;-76
2022/05/02 08:28:07;;;;;;;7.47;5.50;;;;;;;18.56;35.97;94853.84;4995100;28;20129;-76
2022/05/02 08:30:40;;;;;;;5.72;4.55;;;;;;;18.68;35.37;94879.81;4956462;28;20088;-76
2022/05/02 08:33:07;;;;;;;9.75;5.20;;;;;;;18.54;35.51;94863.84;4991271;28;20030;-76
2022/05/02 08:35:44;;;;;;;6.10;5.50;;;;;;;18.27;35.79;94868.91;4990040;28;20034;-76
2022/05/02 08:38:15;;;;;;;11.43;5.07;;;;;;;17.88;36.70;94853.97;5008870;28;20458;-76
2022/05/02 08:41:06;;;;;;;6.15;5.60;;;;;;;17.97;37.43;94841.00;5008668;28;20092;-76
2022/05/02 08:43:56;;;;;;;6.57;5.32;;;;;;;18.32;35.74;94850.41;4991012;28;20410;-75
2022/05/02 08:46:55;;;;;;;21.35;5.28;;;;;;;18.04;36.53;94843.31;5008843;28;20037;-74
2022/05/02 08:49:38;;;;;;;6.72;6.07;;;;;;;18.25;35.45;94813.13;5012299;28;20038;-75
2022/05/02 08:52:22;;;;;;;11.00;6.43;;;;;;;18.25;35.77;94821.78;4993198;28;20038;-75
2022/05/02 08:55:14;;;;;;;6.38;5.78;;;;;;;18.51;35.58;94817.03;5008426;28;20501;-75
2022/05/02 08:57:53;;;;;;;11.88;6.70;;;;;;;18.70;34.96;94830.25;4993987;28;20046;-75
2022/05/02 09:00:28;;;;;;;7.07;5.40;;;;;;;19.00;33.56;94807.22;5011613;28;20112;-76
2022/05/02 09:03:08;;;;;;;9.18;6.72;;;;;;;18.81;33.54;94809.84;4994625;28;20036;-76
2022/05/02 09:05:58;;;;;;;9.40;6.38;;;;;;;18.75;33.86;94798.59;5011386;28;20030;-75
2022/05/02 09:08:45;;;;;;;17.85;5.20;;;;;;;18.97;33.29;94800.69;5011325;28;20108;-75
2022/05/02 09:11:10;;;;;;;6.32;5.60;;;;;;;18.94;33.03;94809.16;5011064;28;20105;-75
2022/05/02 09:13:54;;;;;;;13.75;5.68;;;;;;;18.91;33.12;94812.38;4993917;28;20117;-75
2022/05/02 09:16:48;;;;;;;5.55;5.10;;;;;;;18.52;34.32;94808.06;5010709;28;20041;-74
2022/05/02 09:19:45;;;;;;;14.65;5.50;;;;;;;18.81;33.98;94815.13;5011362;28;20033;-75
2022/05/02 09:22:32;;;;;;;5.97;5.40;;;;;;;18.62;34.34;94816.91;5010601;28;20439;-75
2022/05/02 09:25:07;;;;;;;6.43;4.85;;;;;;;18.88;32.97;94795.28;4994510;28;20033;-75
2022/05/02 09:27:51;;;;;;;9.85;4.68;;;;;;;18.89;31.98;94793.44;5008812;28;20026;-75
2022/05/02 09:30:39;;;;;;;4.47;4.07;;;;;;;18.95;32.32;94784.38;5010732;28;20030;-75
2022/05/02 09:33:32;;;;;;;21.92;4.40;;;;;;;19.22;32.04;94794.28;5007398;28;20037;-74
2022/05/02 09:36:12;;;;;;;4.25;3.95;;;;;;;19.13;31.46;94786.22;5006763;28;20136;-75
2022/05/02 09:39:00;;;;;;;9.45;4.68;;;;;;;19.22;31.31;94782.97;4977620;28;20096;-75
2022/05/02 09:41:51;;;;;;;4.25;3.85;;;;;;;19.10;30.60;94786.00;4993293;28;20559;-74
2022/05/02 09:50:38;;;;;;;3.72;3.17;;;;;;;19.13;28.20;94778.31;4971635;28;20695;-74
2022/05/02 09:53:21;;;;;;;4.55;3.20;;;;;;;19.14;28.61;94766.69;4955238;28;20033;-74
2022/05/02 09:58:42;;;;;;;3.45;3.15;;;;;;;18.68;28.82;94763.91;4948970;28;20146;-76
2022/05/02 10:01:23;;;;;;;4.65;3.42;;;;;;;18.65;29.25;94753.16;4950364;28;20026;-75
2022/05/02 10:04:08;;;;;;;5.32;3.13;;;;;;;18.81;29.00;94779.03;4983825;28;20030;-74
2022/05/02 10:06:51;;;;;;;3.50;3.20;;;;;;;18.55;29.12;94754.84;4998645;28;20117;-75
2022/05/02 10:09:41;;;;;;;4.38;2.80;;;;;;;18.42;29.44;94765.28;4976944;28;20121;-74
2022/05/02 10:12:45;;;;;;;3.63;3.20;;;;;;;18.00;30.48;94759.66;5009890;28;20057;-74
2022/05/02 10:15:35;;;;;;;3.90;3.45;;;;;;;17.50;31.48;94766.16;5009992;28;20119;-74
2022/05/02 10:18:19;;;;;;;3.38;3.08;;;;;;;17.53;31.47;94764.81;4992958;28;20034;-74
2022/05/02 10:20:50;;;;;;;5.50;3.00;;;;;;;17.33;31.30;94744.75;5010643;28;20150;-74
2022/05/02 10:23:31;;;;;;;9.05;3.30;;;;;;;17.24;31.33;94755.06;4993437;28;20041;-74
2022/05/02 10:26:09;;;;;;;8.93;3.38;;;;;;;17.29;31.72;94751.63;5010528;28;20054;-81
2022/05/02 10:28:54;;;;;;;5.90;3.70;;;;;;;17.36;32.11;94749.44;5004036;28;20026;-80
2022/05/02 10:31:25;;;;;;;8.32;3.72;;;;;;;17.49;31.40;94761.97;5018338;28;20034;-81
2022/05/02 10:33:52;;;;;;;5.53;3.58;;;;;;;17.68;31.24;94756.84;4971664;28;20113;-80
2022/05/02 10:36:27;;;;;;;5.70;2.85;;;;;;;17.77;30.89;94749.91;4987176;28;20036;-80
2022/05/02 10:39:04;;;;;;;3.45;2.95;;;;;;;17.50;30.89;94754.84;5002729;28;20041;-79
2022/05/02 10:41:42;;;;;;;5.45;3.08;;;;;;;17.31;30.92;94762.63;5003465;28;20042;-79
2022/05/02 10:44:07;;;;;;;5.00;3.20;;;;;;;17.43;31.08;94747.31;4987887;28;20062;-79
2022/05/02 10:46:33;;;;;;;3.88;2.97;;;;;;;17.50;30.68;94753.00;5020776;28;20520;-79
2022/05/02 10:49:36;;;;;;;4.63;2.80;;;;;;;17.33;31.44;94747.38;5000910;28;20033;-79
2022/05/02 10:52:03;;;;;;;;;;;;;;;17.79;31.38;94739.13;5013737;28;20037;-78
2022/05/02 10:54:49;;;;;;;5.07;2.80;;;;;;;17.76;30.26;94758.88;4997992;28;19921;-80
2022/05/02 10:57:34;;;;;;;3.90;2.60;;;;;;;17.69;30.71;94732.88;4971191;28;20073;-79
2022/05/02 11:00:12;;;;;;;3.30;3.00;;;;;;;18.03;30.55;94710.19;4997876;28;20057;-78
2022/05/02 11:03:11;;;;;;;5.95;3.15;;;;;;;18.46;30.02;94730.19;4972661;28;20030;-78
2022/05/02 11:05:59;;;;;;;3.33;3.03;;;;;;;18.44;30.05;94726.28;5008305;28;20078;-76
2022/05/02 11:08:36;;;;;;;2.55;2.35;;;;;;;18.21;29.22;94723.38;4990398;28;20124;-77
2022/05/02 11:11:06;;;;;;;3.38;2.65;;;;;;;18.09;29.80;94727.50;4991960;28;20572;-80
2022/05/02 11:14:06;;;;;;;13.65;3.00;;;;;;;17.60;30.58;94721.38;4990200;28;20034;-79
2022/05/02 11:23:14;;;;;;;7.85;3.05;;;;;;;17.27;31.68;94736.13;5125441;23;20136;-81
2022/05/02 11:25:44;;;;;;;3.13;2.83;;;;;;;17.55;31.51;94723.25;5030175;28;20033;-79
2022/05/02 11:28:19;;;;;;;5.22;3.25;;;;;;;17.59;32.13;94722.44;4992325;28;20038;-78
2022/05/02 11:30:53;;;;;;;3.00;2.75;;;;;;;18.01;31.50;94718.34;5030569;28;20041;-74
2022/05/02 11:33:33;;;;;;;10.40;2.38;;;;;;;18.28;31.47;94720.41;4983148;28;20559;-74
2022/05/02 11:36:02;;;;;;;4.60;3.13;;;;;;;18.66;31.40;94718.63;4999870;28;20029;-73
2022/05/02 11:38:35;;;;;;;3.08;2.80;;;;;;;18.30;30.86;94720.91;5027302;28;20048;-74
2022/05/02 11:41:14;;;;;;;5.35;3.03;;;;;;;18.48;31.45;94717.53;5009353;28;20107;-79
2022/05/02 11:43:39;;;;;;;3.90;2.90;;;;;;;18.42;31.44;94729.19;5028538;28;20033;-77
2022/05/02 11:46:22;;;;;;;7.03;2.90;;;;;;;17.91;32.38;94755.31;5011276;28;20422;-74
2022/05/02 11:49:23;;;;;;;5.50;3.08;;;;;;;17.61;33.83;94717.69;5027192;28;20149;-74
2022/05/02 11:51:50;;;;;;;3.80;3.00;;;;;;;17.35;34.10;94727.63;5012696;28;20594;-73
2022/05/02 11:54:27;;;;;;;5.07;3.08;;;;;;;17.02;35.25;94729.22;5030658;28;20038;-75
2022/05/02 11:57:17;;;;;;;4.63;3.47;;;;;;;16.92;35.00;94734.53;5027460;28;20416;-75
2022/05/02 11:59:42;;;;;;;6.10;2.72;;;;;;;16.71;33.59;94733.88;5028968;28;20099;-75
2022/05/02 12:02:28;;;;;;;5.47;3.00;;;;;;;16.61;35.12;94728.66;5028235;28;20041;-76
2022/05/02 12:04:54;;;;;;;10.55;3.20;;;;;;;16.71;34.68;94712.06;5013751;28;20445;-75
2022/05/02 12:07:20;;;;;;;6.93;2.70;;;;;;;16.90;33.55;94704.34;5011423;28;20033;-75
2022/05/02 12:09:45;;;;;;;2.97;2.78;;;;;;;17.12;33.34;94711.81;4996141;28;20088;-75
2022/05/02 12:12:11;;;;;;;4.05;2.70;;;;;;;17.24;32.41;94713.00;4995379;28;20046;-75
2022/05/02 12:14:36;;;;;;;6.28;3.22;;;;;;;17.31;32.90;94718.75;4994615;28;20037;-75
2022/05/02 12:17:06;;;;;;;5.50;3.17;;;;;;;17.24;33.43;94714.84;4994876;28;20037;-75
2022/05/02 12:19:33;;;;;;;4.72;3.00;;;;;;;16.96;32.52;94711.13;4994303;28;20068;-75
2022/05/02 12:22:03;;;;;;;8.55;3.17;;;;;;;16.84;32.95;94715.94;5012447;28;20168;-75
2022/05/02 12:24:33;;;;;;;4.13;3.20;;;;;;;16.66;33.96;94731.25;5032228;28;20107;-75
2022/05/02 12:26:58;;;;;;;16.58;3.38;;;;;;;16.41;33.96;94720.88;4998912;28;20041;-75
2022/05/02 12:29:23;;;;;;;4.50;2.83;;;;;;;16.47;33.72;94704.06;5014401;28;20060;-75